Akaska, South Dakota
Current Conditions -  °F | °C
As of 11:52 AM on Thursday 27 Nov 2014 (Local Time) from KMBG Reporting Station
Overcast Overcast  
Wind Chill: -6°   Ceiling: 3800
Heat Index: 12°   Visibility: 10mi
Dew Point:   Wind: 18mph
Humidity: 70%   Direction: 130°SE
Pressure: 30.18"   Gusts: NA
Location:  45.33°N, 100.12°W
Report Text: KMBG 271752Z AUTO 13016KT 10SM OVC038 M11/M16 A3018 RMK AO2 PRESFR SLP263 T11111156 11111 21183 58037
Loading
Personal Weather Stations






























Interactive Weather Map New forecast layout! Learn more

10-Day Weather Forecast

Advertisements
Track Severe Weather on mobile